Decatur, OH (45115)

7:45 PM EST on February 28, 2015 (GMT -0500)
Huntington Twp | Change Station
CLOSE
Current Station
Personal Weather Station
Location: Aberdeen, OH
Elevation: 863 ft
Nearby Weather Stations
Active Advisory: Special Statement Active Notice: Record Report

Elev 863 ft 38.71 °N, 83.77 °W | Updated 37 seconds ago

Overcast
Overcast
33.3 °F
Feels Like 33 °F
N
3.0
Wind Variable Wind from East
Gusts 4.0 mph

Today
High -- | Low -- °F
--% Chance of Precip.
Yesterday
High -- | Low -- °F
Precip. -- in
7:08 AM 6:26 PM
Waxing Gibbous, 81% visible
Pressure 30.53 in
Visibility 10.0 miles
Clouds Overcast 6000 ft
Windchill 33 °F
Dew Point 16 °F
Humidity 48%
Rainfall 0.00 in
Snow Depth Not available.
UV 0 out of 12
Pollen 1.10 out of 12
Air Quality Not available.
Flu Activity Not available.
METAR KI69 010036Z AUTO 06004KT 10SM OVC060 M02/M10 A3053 RMK AO1

More Conditions Fewer Conditions

Pressure 30.53 in
Visibility 10.0 miles
Clouds Overcast 6000 ft
Windchill 33 °F
Dew Point 16 °F
Humidity 48%
Rainfall 0.00 in
Snow Depth Not available.
UV 0 out of 12
Pollen 1.10 out of 12
Air Quality Not available.
Flu Activity Not available.
METAR KI69 010036Z AUTO 06004KT 10SM OVC060 M02/M10 A3053 RMK AO1

More Conditions Fewer Conditions

10-Day Weather Forecast

Almanac

Astronomy

Feb. 28, 2015 Rise Set
Actual Time
Civil Twilight
Nautical Twilight
Astronomical Twilight
Moon
Length of Visible Light
Length of Day
Tomorrow will be .
, % of the Moon is Illuminated

Today's Extremes

State Highs State Lows

Community

WunderPhotos

Upload Photos

1,801,194 photos uploaded!

WunderBlogs® & News

Nearby

Air Quality

  Air Quality AQ Index Pollutant
Not available.

Snow Depth

Station Depth Elevation

Earthquake Activity

City Distance Mag. Time & Date
Minimum magnitude displayed is 2.5.

Coastal Water Temperatures

Place Temperature

Nearby Weather Stations

Special Statement
Statement as of 4:28 PM EST on February 28, 2015

... Wintry mix expected tonight through early Sunday morning...

Light snow is forecast to develop late this evening. A mix of
snow... sleet and freezing rain will then be possible during the
overnight hours... before changing to rain on Sunday morning. Only
light accumulations of snow and ice are expected... but travel
difficulties may still occur... especially early Sunday morning.